sensor_id;sensor_type;location;lat;lon;timestamp;temperature;humidity
23556;DHT22;11956;53.184;8.578;2023-01-09T00:01:50;5.90;99.90
23556;DHT22;11956;53.184;8.578;2023-01-09T00:04:51;5.80;99.90
23556;DHT22;11956;53.184;8.578;2023-01-09T00:07:52;5.90;99.90
23556;DHT22;11956;53.184;8.578;2023-01-09T00:10:53;5.80;99.90
23556;DHT22;11956;53.184;8.578;2023-01-09T00:13:54;5.80;99.90
23556;DHT22;11956;53.184;8.578;2023-01-09T00:16:55;5.80;99.90
23556;DHT22;11956;53.184;8.578;2023-01-09T00:19:56;5.80;99.90
23556;DHT22;11956;53.184;8.578;2023-01-09T00:22:58;5.80;99.90
23556;DHT22;11956;53.184;8.578;2023-01-09T00:26:12;5.80;99.90
23556;DHT22;11956;53.184;8.578;2023-01-09T00:29:16;5.80;99.90
23556;DHT22;11956;53.184;8.578;2023-01-09T00:32:17;5.80;99.90
23556;DHT22;11956;53.184;8.578;2023-01-09T00:35:21;5.90;99.90
23556;DHT22;11956;53.184;8.578;2023-01-09T00:38:23;5.90;99.90
23556;DHT22;11956;53.184;8.578;2023-01-09T00:44:58;6.00;99.90
23556;DHT22;11956;53.184;8.578;2023-01-09T00:48:08;6.00;99.90
23556;DHT22;11956;53.184;8.578;2023-01-09T00:51:11;6.00;99.90
23556;DHT22;11956;53.184;8.578;2023-01-09T00:54:15;6.00;99.90
23556;DHT22;11956;53.184;8.578;2023-01-09T00:57:17;6.00;99.90
23556;DHT22;11956;53.184;8.578;2023-01-09T01:00:18;6.10;99.90
23556;DHT22;11956;53.184;8.578;2023-01-09T01:03:19;6.10;99.90
23556;DHT22;11956;53.184;8.578;2023-01-09T01:06:20;6.20;99.90
23556;DHT22;11956;53.184;8.578;2023-01-09T01:09:39;6.30;99.90
23556;DHT22;11956;53.184;8.578;2023-01-09T01:12:41;6.30;99.90
23556;DHT22;11956;53.184;8.578;2023-01-09T01:15:44;6.40;99.90
23556;DHT22;11956;53.184;8.578;2023-01-09T01:18:45;6.40;99.90
23556;DHT22;11956;53.184;8.578;2023-01-09T01:21:46;6.40;99.90
23556;DHT22;11956;53.184;8.578;2023-01-09T01:24:47;6.40;99.90
23556;DHT22;11956;53.184;8.578;2023-01-09T01:27:48;6.50;99.90
23556;DHT22;11956;53.184;8.578;2023-01-09T01:30:49;6.50;99.90
23556;DHT22;11956;53.184;8.578;2023-01-09T01:33:50;6.50;99.90
23556;DHT22;11956;53.184;8.578;2023-01-09T01:36:51;6.40;99.90
23556;DHT22;11956;53.184;8.578;2023-01-09T01:39:52;6.40;99.90
23556;DHT22;11956;53.184;8.578;2023-01-09T01:42:53;6.40;99.90
23556;DHT22;11956;53.184;8.578;2023-01-09T01:45:55;6.30;99.90
23556;DHT22;11956;53.184;8.578;2023-01-09T01:52:07;6.10;99.90
23556;DHT22;11956;53.184;8.578;2023-01-09T01:55:09;6.10;99.90
23556;DHT22;11956;53.184;8.578;2023-01-09T01:58:14;6.10;99.90
23556;DHT22;11956;53.184;8.578;2023-01-09T02:01:15;6.10;99.90
23556;DHT22;11956;53.184;8.578;2023-01-09T02:04:17;6.10;99.90
23556;DHT22;11956;53.184;8.578;2023-01-09T02:07:18;6.10;99.90
23556;DHT22;11956;53.184;8.578;2023-01-09T02:10:19;6.20;99.90
23556;DHT22;11956;53.184;8.578;2023-01-09T02:13:24;6.20;99.90
23556;DHT22;11956;53.184;8.578;2023-01-09T02:20:36;6.30;99.90
23556;DHT22;11956;53.184;8.578;2023-01-09T02:27:04;6.40;99.90
23556;DHT22;11956;53.184;8.578;2023-01-09T02:37:07;6.50;99.90
23556;DHT22;11956;53.184;8.578;2023-01-09T02:40:29;6.60;99.90
23556;DHT22;11956;53.184;8.578;2023-01-09T02:43:34;6.70;99.90
23556;DHT22;11956;53.184;8.578;2023-01-09T02:46:35;6.80;99.90
23556;DHT22;11956;53.184;8.578;2023-01-09T02:49:37;6.80;99.90
23556;DHT22;11956;53.184;8.578;2023-01-09T02:52:46;6.90;99.90
23556;DHT22;11956;53.184;8.578;2023-01-09T02:59:52;7.00;99.90
23556;DHT22;11956;53.184;8.578;2023-01-09T03:10:21;7.10;99.90
23556;DHT22;11956;53.184;8.578;2023-01-09T03:13:44;7.10;99.90
23556;DHT22;11956;53.184;8.578;2023-01-09T03:16:48;7.20;99.90
23556;DHT22;11956;53.184;8.578;2023-01-09T03:19:53;7.20;99.90
23556;DHT22;11956;53.184;8.578;2023-01-09T03:23:03;7.20;99.90
23556;DHT22;11956;53.184;8.578;2023-01-09T03:26:09;7.20;99.90
23556;DHT22;11956;53.184;8.578;2023-01-09T03:29:11;7.20;99.90
23556;DHT22;11956;53.184;8.578;2023-01-09T03:32:12;7.20;99.90
23556;DHT22;11956;53.184;8.578;2023-01-09T03:35:13;7.20;99.90
23556;DHT22;11956;53.184;8.578;2023-01-09T03:38:14;7.20;99.90
23556;DHT22;11956;53.184;8.578;2023-01-09T03:41:14;7.30;99.90
23556;DHT22;11956;53.184;8.578;2023-01-09T03:44:15;7.30;99.90
23556;DHT22;11956;53.184;8.578;2023-01-09T03:47:16;7.30;99.90
23556;DHT22;11956;53.184;8.578;2023-01-09T03:50:17;7.30;99.90
23556;DHT22;11956;53.184;8.578;2023-01-09T03:53:19;7.30;99.90
23556;DHT22;11956;53.184;8.578;2023-01-09T03:56:20;7.30;99.90
23556;DHT22;11956;53.184;8.578;2023-01-09T03:59:21;7.20;99.90
23556;DHT22;11956;53.184;8.578;2023-01-09T04:02:22;7.30;99.90
23556;DHT22;11956;53.184;8.578;2023-01-09T04:05:23;7.30;99.90
23556;DHT22;11956;53.184;8.578;2023-01-09T04:08:24;7.30;99.90
23556;DHT22;11956;53.184;8.578;2023-01-09T04:11:25;7.30;99.90
23556;DHT22;11956;53.184;8.578;2023-01-09T04:14:26;7.20;99.90
23556;DHT22;11956;53.184;8.578;2023-01-09T04:17:26;7.20;99.90
23556;DHT22;11956;53.184;8.578;2023-01-09T04:20:27;7.20;99.90
23556;DHT22;11956;53.184;8.578;2023-01-09T04:23:29;7.20;99.90
23556;DHT22;11956;53.184;8.578;2023-01-09T04:26:29;7.10;99.90
23556;DHT22;11956;53.184;8.578;2023-01-09T04:29:30;7.00;99.90
23556;DHT22;11956;53.184;8.578;2023-01-09T04:32:31;7.00;99.90
23556;DHT22;11956;53.184;8.578;2023-01-09T04:35:32;7.00;99.90
23556;DHT22;11956;53.184;8.578;2023-01-09T04:38:33;7.00;99.90
23556;DHT22;11956;53.184;8.578;2023-01-09T04:41:34;7.00;99.90
23556;DHT22;11956;53.184;8.578;2023-01-09T04:44:50;7.00;99.90
23556;DHT22;11956;53.184;8.578;2023-01-09T04:47:53;7.00;99.90
23556;DHT22;11956;53.184;8.578;2023-01-09T04:50:54;6.90;99.90
23556;DHT22;11956;53.184;8.578;2023-01-09T04:53:55;7.00;99.90
23556;DHT22;11956;53.184;8.578;2023-01-09T04:56:55;7.00;99.90
23556;DHT22;11956;53.184;8.578;2023-01-09T04:59:56;7.00;99.90
23556;DHT22;11956;53.184;8.578;2023-01-09T05:02:57;6.90;99.90
23556;DHT22;11956;53.184;8.578;2023-01-09T05:05:58;6.90;99.90
23556;DHT22;11956;53.184;8.578;2023-01-09T05:09:00;7.00;99.90
23556;DHT22;11956;53.184;8.578;2023-01-09T05:12:01;7.00;99.90
23556;DHT22;11956;53.184;8.578;2023-01-09T05:15:03;6.90;99.90
23556;DHT22;11956;53.184;8.578;2023-01-09T05:18:04;6.90;99.90
23556;DHT22;11956;53.184;8.578;2023-01-09T05:21:05;6.90;99.90
23556;DHT22;11956;53.184;8.578;2023-01-09T05:24:06;6.80;99.90
23556;DHT22;11956;53.184;8.578;2023-01-09T05:27:07;6.70;99.90
23556;DHT22;11956;53.184;8.578;2023-01-09T05:30:09;6.70;99.90
23556;DHT22;11956;53.184;8.578;2023-01-09T05:33:10;6.60;99.90
23556;DHT22;11956;53.184;8.578;2023-01-09T05:36:11;6.50;99.90
23556;DHT22;11956;53.184;8.578;2023-01-09T05:39:12;6.50;99.90
23556;DHT22;11956;53.184;8.578;2023-01-09T05:42:13;6.40;99.90
23556;DHT22;11956;53.184;8.578;2023-01-09T05:45:14;6.40;99.90
23556;DHT22;11956;53.184;8.578;2023-01-09T05:48:15;6.30;99.90
23556;DHT22;11956;53.184;8.578;2023-01-09T05:51:16;6.30;99.90
23556;DHT22;11956;53.184;8.578;2023-01-09T05:54:17;6.20;99.90
23556;DHT22;11956;53.184;8.578;2023-01-09T05:57:18;6.20;99.90
23556;DHT22;11956;53.184;8.578;2023-01-09T06:00:19;6.10;99.90
23556;DHT22;11956;53.184;8.578;2023-01-09T06:03:20;6.00;99.90
23556;DHT22;11956;53.184;8.578;2023-01-09T06:06:21;5.90;99.90
23556;DHT22;11956;53.184;8.578;2023-01-09T06:09:23;5.90;99.90
23556;DHT22;11956;53.184;8.578;2023-01-09T06:12:24;5.90;99.90
23556;DHT22;11956;53.184;8.578;2023-01-09T06:15:25;5.80;99.90
23556;DHT22;11956;53.184;8.578;2023-01-09T06:18:26;5.70;99.90
23556;DHT22;11956;53.184;8.578;2023-01-09T06:21:27;5.70;99.90
23556;DHT22;11956;53.184;8.578;2023-01-09T06:24:29;5.70;99.90
23556;DHT22;11956;53.184;8.578;2023-01-09T06:27:30;5.60;99.90
23556;DHT22;11956;53.184;8.578;2023-01-09T06:30:30;5.60;99.90
23556;DHT22;11956;53.184;8.578;2023-01-09T06:33:32;5.50;99.90
23556;DHT22;11956;53.184;8.578;2023-01-09T06:36:33;5.50;99.90
23556;DHT22;11956;53.184;8.578;2023-01-09T06:39:34;5.50;99.90
23556;DHT22;11956;53.184;8.578;2023-01-09T06:42:35;5.50;99.90
23556;DHT22;11956;53.184;8.578;2023-01-09T06:45:36;5.50;99.90
23556;DHT22;11956;53.184;8.578;2023-01-09T06:48:37;5.50;99.90
23556;DHT22;11956;53.184;8.578;2023-01-09T06:51:38;5.40;99.90
23556;DHT22;11956;53.184;8.578;2023-01-09T06:54:39;5.40;99.90
23556;DHT22;11956;53.184;8.578;2023-01-09T06:57:40;5.40;99.90
23556;DHT22;11956;53.184;8.578;2023-01-09T07:00:40;5.30;99.90
23556;DHT22;11956;53.184;8.578;2023-01-09T07:03:42;5.30;99.90
23556;DHT22;11956;53.184;8.578;2023-01-09T07:06:47;5.30;99.90
23556;DHT22;11956;53.184;8.578;2023-01-09T07:09:48;5.30;99.90
23556;DHT22;11956;53.184;8.578;2023-01-09T07:12:49;5.30;99.90
23556;DHT22;11956;53.184;8.578;2023-01-09T07:15:50;5.20;99.90
23556;DHT22;11956;53.184;8.578;2023-01-09T07:18:53;5.20;99.90
23556;DHT22;11956;53.184;8.578;2023-01-09T07:21:54;5.10;99.90
23556;DHT22;11956;53.184;8.578;2023-01-09T07:24:55;5.10;99.90
23556;DHT22;11956;53.184;8.578;2023-01-09T07:27:56;5.10;99.90
23556;DHT22;11956;53.184;8.578;2023-01-09T07:30:58;5.00;99.90
23556;DHT22;11956;53.184;8.578;2023-01-09T07:34:01;5.00;99.90
23556;DHT22;11956;53.184;8.578;2023-01-09T07:37:02;4.90;99.90
23556;DHT22;11956;53.184;8.578;2023-01-09T07:40:04;4.90;99.90
23556;DHT22;11956;53.184;8.578;2023-01-09T07:43:05;4.90;99.90
23556;DHT22;11956;53.184;8.578;2023-01-09T07:46:06;4.90;99.90
23556;DHT22;11956;53.184;8.578;2023-01-09T07:49:07;5.00;99.90
23556;DHT22;11956;53.184;8.578;2023-01-09T07:52:09;5.10;99.90
23556;DHT22;11956;53.184;8.578;2023-01-09T07:55:10;5.30;99.90
23556;DHT22;11956;53.184;8.578;2023-01-09T07:58:11;5.40;99.90
23556;DHT22;11956;53.184;8.578;2023-01-09T08:01:12;5.50;99.90
23556;DHT22;11956;53.184;8.578;2023-01-09T08:04:14;5.60;99.90
23556;DHT22;11956;53.184;8.578;2023-01-09T08:07:15;5.70;99.90
23556;DHT22;11956;53.184;8.578;2023-01-09T08:10:16;5.80;99.90
23556;DHT22;11956;53.184;8.578;2023-01-09T08:13:21;5.90;99.90
23556;DHT22;11956;53.184;8.578;2023-01-09T08:16:22;6.00;99.90
23556;DHT22;11956;53.184;8.578;2023-01-09T08:19:22;5.90;99.90
23556;DHT22;11956;53.184;8.578;2023-01-09T08:22:23;6.00;99.90
23556;DHT22;11956;53.184;8.578;2023-01-09T08:25:24;6.00;99.90
23556;DHT22;11956;53.184;8.578;2023-01-09T08:28:25;6.20;99.90
23556;DHT22;11956;53.184;8.578;2023-01-09T08:31:26;6.20;99.90
23556;DHT22;11956;53.184;8.578;2023-01-09T08:34:27;6.20;99.90
23556;DHT22;11956;53.184;8.578;2023-01-09T08:37:28;6.30;99.90
23556;DHT22;11956;53.184;8.578;2023-01-09T08:40:29;6.30;99.90
23556;DHT22;11956;53.184;8.578;2023-01-09T08:43:30;6.30;99.90
23556;DHT22;11956;53.184;8.578;2023-01-09T08:46:49;6.30;99.90
23556;DHT22;11956;53.184;8.578;2023-01-09T08:50:05;6.40;99.90
23556;DHT22;11956;53.184;8.578;2023-01-09T08:53:06;6.50;99.90
23556;DHT22;11956;53.184;8.578;2023-01-09T08:56:07;6.60;99.90
23556;DHT22;11956;53.184;8.578;2023-01-09T08:59:08;6.60;99.90
23556;DHT22;11956;53.184;8.578;2023-01-09T09:02:10;6.70;99.90
23556;DHT22;11956;53.184;8.578;2023-01-09T09:05:11;6.70;99.90
23556;DHT22;11956;53.184;8.578;2023-01-09T09:08:12;6.70;99.90
23556;DHT22;11956;53.184;8.578;2023-01-09T09:11:13;6.80;99.90
23556;DHT22;11956;53.184;8.578;2023-01-09T09:14:14;7.40;99.90
23556;DHT22;11956;53.184;8.578;2023-01-09T09:17:33;8.50;99.90
23556;DHT22;11956;53.184;8.578;2023-01-09T09:20:37;9.80;99.90
23556;DHT22;11956;53.184;8.578;2023-01-09T09:23:38;10.80;99.90
23556;DHT22;11956;53.184;8.578;2023-01-09T09:26:39;10.80;99.90
23556;DHT22;11956;53.184;8.578;2023-01-09T09:29:40;10.80;99.90
23556;DHT22;11956;53.184;8.578;2023-01-09T09:32:41;10.30;99.90
23556;DHT22;11956;53.184;8.578;2023-01-09T09:35:42;9.50;99.90
23556;DHT22;11956;53.184;8.578;2023-01-09T09:38:43;8.90;99.90
23556;DHT22;11956;53.184;8.578;2023-01-09T09:45:57;8.20;99.90
23556;DHT22;11956;53.184;8.578;2023-01-09T09:49:16;7.80;99.90
23556;DHT22;11956;53.184;8.578;2023-01-09T09:53:15;7.60;99.90
23556;DHT22;11956;53.184;8.578;2023-01-09T09:55:52;7.70;99.90
23556;DHT22;11956;53.184;8.578;2023-01-09T09:58:57;7.60;99.90
23556;DHT22;11956;53.184;8.578;2023-01-09T10:02:27;7.60;99.90
23556;DHT22;11956;53.184;8.578;2023-01-09T10:05:34;7.60;99.90
23556;DHT22;11956;53.184;8.578;2023-01-09T10:08:52;7.60;99.90
23556;DHT22;11956;53.184;8.578;2023-01-09T10:15:41;7.70;99.90
23556;DHT22;11956;53.184;8.578;2023-01-09T10:25:51;7.90;99.90
23556;DHT22;11956;53.184;8.578;2023-01-09T10:32:38;7.80;99.90
23556;DHT22;11956;53.184;8.578;2023-01-09T10:38:58;7.80;99.90
23556;DHT22;11956;53.184;8.578;2023-01-09T10:45:43;7.90;99.90
23556;DHT22;11956;53.184;8.578;2023-01-09T10:49:04;7.90;99.90
23556;DHT22;11956;53.184;8.578;2023-01-09T10:52:15;7.90;99.90
23556;DHT22;11956;53.184;8.578;2023-01-09T10:55:35;8.00;99.90
23556;DHT22;11956;53.184;8.578;2023-01-09T10:58:39;8.30;99.90
23556;DHT22;11956;53.184;8.578;2023-01-09T11:01:40;8.40;99.90
23556;DHT22;11956;53.184;8.578;2023-01-09T11:04:42;8.30;99.90
23556;DHT22;11956;53.184;8.578;2023-01-09T11:07:46;8.40;99.90
23556;DHT22;11956;53.184;8.578;2023-01-09T11:10:58;8.40;99.90
23556;DHT22;11956;53.184;8.578;2023-01-09T11:14:06;8.50;99.90
23556;DHT22;11956;53.184;8.578;2023-01-09T11:17:17;8.40;99.90
23556;DHT22;11956;53.184;8.578;2023-01-09T11:20:25;8.40;99.90
23556;DHT22;11956;53.184;8.578;2023-01-09T11:23:29;8.40;99.90
23556;DHT22;11956;53.184;8.578;2023-01-09T11:26:33;8.50;99.90
23556;DHT22;11956;53.184;8.578;2023-01-09T11:29:34;8.50;99.90
23556;DHT22;11956;53.184;8.578;2023-01-09T11:32:35;8.40;99.90
23556;DHT22;11956;53.184;8.578;2023-01-09T11:35:36;8.40;99.90
23556;DHT22;11956;53.184;8.578;2023-01-09T11:38:50;8.40;99.90
23556;DHT22;11956;53.184;8.578;2023-01-09T11:41:58;8.40;99.90
23556;DHT22;11956;53.184;8.578;2023-01-09T11:45:00;8.30;99.90
23556;DHT22;11956;53.184;8.578;2023-01-09T11:48:01;8.20;99.90
23556;DHT22;11956;53.184;8.578;2023-01-09T11:51:18;8.30;99.90
23556;DHT22;11956;53.184;8.578;2023-01-09T11:54:27;8.40;99.90
23556;DHT22;11956;53.184;8.578;2023-01-09T11:57:31;8.50;99.90
23556;DHT22;11956;53.184;8.578;2023-01-09T12:00:40;8.60;99.90
23556;DHT22;11956;53.184;8.578;2023-01-09T12:13:58;8.60;99.90
23556;DHT22;11956;53.184;8.578;2023-01-09T12:42:07;8.10;99.90
23556;DHT22;11956;53.184;8.578;2023-01-09T12:52:27;8.20;99.90
23556;DHT22;11956;53.184;8.578;2023-01-09T12:55:37;8.30;99.90
23556;DHT22;11956;53.184;8.578;2023-01-09T12:58:48;8.50;99.90
23556;DHT22;11956;53.184;8.578;2023-01-09T13:01:51;8.60;99.90
23556;DHT22;11956;53.184;8.578;2023-01-09T13:05:08;8.60;99.90
23556;DHT22;11956;53.184;8.578;2023-01-09T13:08:35;8.70;99.90
23556;DHT22;11956;53.184;8.578;2023-01-09T13:11:47;8.70;99.90
23556;DHT22;11956;53.184;8.578;2023-01-09T13:15:04;8.70;99.90
23556;DHT22;11956;53.184;8.578;2023-01-09T13:18:20;8.70;99.90
23556;DHT22;11956;53.184;8.578;2023-01-09T13:21:40;8.70;99.90
23556;DHT22;11956;53.184;8.578;2023-01-09T13:28:36;8.60;99.90
23556;DHT22;11956;53.184;8.578;2023-01-09T13:35:14;8.60;99.90
23556;DHT22;11956;53.184;8.578;2023-01-09T13:38:18;8.60;99.90
23556;DHT22;11956;53.184;8.578;2023-01-09T13:41:21;8.40;99.90
23556;DHT22;11956;53.184;8.578;2023-01-09T13:44:42;8.50;99.90
23556;DHT22;11956;53.184;8.578;2023-01-09T13:47:44;8.40;99.90
23556;DHT22;11956;53.184;8.578;2023-01-09T13:50:46;8.30;99.90
23556;DHT22;11956;53.184;8.578;2023-01-09T13:53:47;8.30;99.90
23556;DHT22;11956;53.184;8.578;2023-01-09T14:03:27;8.30;99.90
23556;DHT22;11956;53.184;8.578;2023-01-09T14:06:36;8.40;99.90
23556;DHT22;11956;53.184;8.578;2023-01-09T14:09:37;8.40;99.90
23556;DHT22;11956;53.184;8.578;2023-01-09T14:12:46;8.40;99.90
23556;DHT22;11956;53.184;8.578;2023-01-09T14:15:49;8.40;99.90
23556;DHT22;11956;53.184;8.578;2023-01-09T14:19:23;8.40;99.90
23556;DHT22;11956;53.184;8.578;2023-01-09T14:22:36;8.50;99.90
23556;DHT22;11956;53.184;8.578;2023-01-09T14:25:37;8.50;99.90
23556;DHT22;11956;53.184;8.578;2023-01-09T14:28:38;8.40;99.90
23556;DHT22;11956;53.184;8.578;2023-01-09T14:31:39;8.40;99.90
23556;DHT22;11956;53.184;8.578;2023-01-09T14:34:41;8.40;99.90
23556;DHT22;11956;53.184;8.578;2023-01-09T14:37:53;8.40;99.90
23556;DHT22;11956;53.184;8.578;2023-01-09T14:44:47;8.40;99.90
23556;DHT22;11956;53.184;8.578;2023-01-09T14:48:06;8.40;99.90
23556;DHT22;11956;53.184;8.578;2023-01-09T14:51:15;8.40;99.90
23556;DHT22;11956;53.184;8.578;2023-01-09T14:54:27;8.40;99.90
23556;DHT22;11956;53.184;8.578;2023-01-09T14:57:33;8.40;99.90
23556;DHT22;11956;53.184;8.578;2023-01-09T15:00:34;8.40;99.90
23556;DHT22;11956;53.184;8.578;2023-01-09T15:03:43;8.40;99.90
23556;DHT22;11956;53.184;8.578;2023-01-09T15:06:51;8.30;99.90
23556;DHT22;11956;53.184;8.578;2023-01-09T15:09:51;8.30;99.90
23556;DHT22;11956;53.184;8.578;2023-01-09T15:12:54;8.30;99.90
23556;DHT22;11956;53.184;8.578;2023-01-09T15:15:56;8.20;99.90
23556;DHT22;11956;53.184;8.578;2023-01-09T15:19:04;8.20;99.90
23556;DHT22;11956;53.184;8.578;2023-01-09T15:22:31;8.10;99.90
23556;DHT22;11956;53.184;8.578;2023-01-09T15:25:37;8.10;99.90
23556;DHT22;11956;53.184;8.578;2023-01-09T15:28:42;8.10;99.90
23556;DHT22;11956;53.184;8.578;2023-01-09T15:31:48;8.00;99.90
23556;DHT22;11956;53.184;8.578;2023-01-09T15:34:55;8.10;99.90
23556;DHT22;11956;53.184;8.578;2023-01-09T15:37:57;8.00;99.90
23556;DHT22;11956;53.184;8.578;2023-01-09T15:40:59;8.00;99.90
23556;DHT22;11956;53.184;8.578;2023-01-09T15:44:03;7.90;99.90
23556;DHT22;11956;53.184;8.578;2023-01-09T15:47:07;7.90;99.90
23556;DHT22;11956;53.184;8.578;2023-01-09T15:50:15;7.80;99.90
23556;DHT22;11956;53.184;8.578;2023-01-09T15:53:20;7.80;99.90
23556;DHT22;11956;53.184;8.578;2023-01-09T15:59:26;7.70;99.90
23556;DHT22;11956;53.184;8.578;2023-01-09T16:02:28;7.60;99.90
23556;DHT22;11956;53.184;8.578;2023-01-09T16:06:00;7.60;99.90
23556;DHT22;11956;53.184;8.578;2023-01-09T16:09:25;7.60;99.90
23556;DHT22;11956;53.184;8.578;2023-01-09T16:12:27;7.50;99.90
23556;DHT22;11956;53.184;8.578;2023-01-09T16:15:32;7.60;99.90
23556;DHT22;11956;53.184;8.578;2023-01-09T16:18:37;7.50;99.90
23556;DHT22;11956;53.184;8.578;2023-01-09T16:21:39;7.60;99.90
23556;DHT22;11956;53.184;8.578;2023-01-09T16:24:41;7.50;99.90
23556;DHT22;11956;53.184;8.578;2023-01-09T16:27:41;7.40;99.90
23556;DHT22;11956;53.184;8.578;2023-01-09T16:34:11;7.40;99.90
23556;DHT22;11956;53.184;8.578;2023-01-09T16:37:13;7.40;99.90
23556;DHT22;11956;53.184;8.578;2023-01-09T16:43:17;7.30;99.90
23556;DHT22;11956;53.184;8.578;2023-01-09T16:46:19;7.30;99.90
23556;DHT22;11956;53.184;8.578;2023-01-09T16:49:22;7.30;99.90
23556;DHT22;11956;53.184;8.578;2023-01-09T16:52:26;7.40;99.90
23556;DHT22;11956;53.184;8.578;2023-01-09T16:55:28;7.40;99.90
23556;DHT22;11956;53.184;8.578;2023-01-09T16:58:31;7.50;99.90
23556;DHT22;11956;53.184;8.578;2023-01-09T17:01:33;7.50;99.90
23556;DHT22;11956;53.184;8.578;2023-01-09T17:04:34;7.50;99.90
23556;DHT22;11956;53.184;8.578;2023-01-09T17:07:35;7.40;99.90
23556;DHT22;11956;53.184;8.578;2023-01-09T17:10:37;7.50;99.90
23556;DHT22;11956;53.184;8.578;2023-01-09T17:13:38;7.50;99.90
23556;DHT22;11956;53.184;8.578;2023-01-09T17:16:40;7.40;99.90
23556;DHT22;11956;53.184;8.578;2023-01-09T17:19:45;7.40;99.90
23556;DHT22;11956;53.184;8.578;2023-01-09T17:22:46;7.40;99.90
23556;DHT22;11956;53.184;8.578;2023-01-09T17:25:48;7.40;99.90
23556;DHT22;11956;53.184;8.578;2023-01-09T17:29:08;7.40;99.90
23556;DHT22;11956;53.184;8.578;2023-01-09T17:32:14;7.30;99.90
23556;DHT22;11956;53.184;8.578;2023-01-09T17:35:16;7.40;99.90
23556;DHT22;11956;53.184;8.578;2023-01-09T17:38:17;7.40;99.90
23556;DHT22;11956;53.184;8.578;2023-01-09T17:41:17;7.40;99.90
23556;DHT22;11956;53.184;8.578;2023-01-09T17:44:18;7.50;99.90
23556;DHT22;11956;53.184;8.578;2023-01-09T17:47:19;7.50;99.90
23556;DHT22;11956;53.184;8.578;2023-01-09T17:50:20;7.50;99.90
23556;DHT22;11956;53.184;8.578;2023-01-09T17:53:22;7.50;99.90
23556;DHT22;11956;53.184;8.578;2023-01-09T17:56:28;7.60;99.90
23556;DHT22;11956;53.184;8.578;2023-01-09T17:59:30;7.50;99.90
23556;DHT22;11956;53.184;8.578;2023-01-09T18:02:32;7.60;99.90
23556;DHT22;11956;53.184;8.578;2023-01-09T18:05:33;7.60;99.90
23556;DHT22;11956;53.184;8.578;2023-01-09T18:08:37;7.60;99.90
23556;DHT22;11956;53.184;8.578;2023-01-09T18:11:39;7.60;99.90
23556;DHT22;11956;53.184;8.578;2023-01-09T18:14:40;7.60;99.90
23556;DHT22;11956;53.184;8.578;2023-01-09T18:17:42;7.60;99.90
23556;DHT22;11956;53.184;8.578;2023-01-09T18:20:44;7.60;99.90
23556;DHT22;11956;53.184;8.578;2023-01-09T18:23:45;7.60;99.90
23556;DHT22;11956;53.184;8.578;2023-01-09T18:26:47;7.60;99.90
23556;DHT22;11956;53.184;8.578;2023-01-09T18:29:47;7.50;99.90
23556;DHT22;11956;53.184;8.578;2023-01-09T18:32:48;7.40;99.90
23556;DHT22;11956;53.184;8.578;2023-01-09T18:35:49;7.30;99.90
23556;DHT22;11956;53.184;8.578;2023-01-09T18:38:51;7.30;99.90
23556;DHT22;11956;53.184;8.578;2023-01-09T18:41:52;7.20;99.90
23556;DHT22;11956;53.184;8.578;2023-01-09T18:44:53;7.20;99.90
23556;DHT22;11956;53.184;8.578;2023-01-09T18:47:54;7.10;99.90
23556;DHT22;11956;53.184;8.578;2023-01-09T18:51:06;7.10;99.90
23556;DHT22;11956;53.184;8.578;2023-01-09T18:54:07;7.00;99.90
23556;DHT22;11956;53.184;8.578;2023-01-09T18:57:08;7.10;99.90
23556;DHT22;11956;53.184;8.578;2023-01-09T19:00:09;7.10;99.90
23556;DHT22;11956;53.184;8.578;2023-01-09T19:03:14;7.10;99.90
23556;DHT22;11956;53.184;8.578;2023-01-09T19:06:14;7.20;99.90
23556;DHT22;11956;53.184;8.578;2023-01-09T19:09:15;7.20;99.90
23556;DHT22;11956;53.184;8.578;2023-01-09T19:12:16;7.20;99.90
23556;DHT22;11956;53.184;8.578;2023-01-09T19:15:17;7.20;99.90
23556;DHT22;11956;53.184;8.578;2023-01-09T19:18:18;7.20;99.90
23556;DHT22;11956;53.184;8.578;2023-01-09T19:21:21;7.20;99.90
23556;DHT22;11956;53.184;8.578;2023-01-09T19:24:23;7.20;99.90
23556;DHT22;11956;53.184;8.578;2023-01-09T19:27:27;7.20;99.90
23556;DHT22;11956;53.184;8.578;2023-01-09T19:30:29;7.10;99.90
23556;DHT22;11956;53.184;8.578;2023-01-09T19:33:30;7.20;99.90
23556;DHT22;11956;53.184;8.578;2023-01-09T19:36:31;7.20;99.90
23556;DHT22;11956;53.184;8.578;2023-01-09T19:39:32;7.20;99.90
23556;DHT22;11956;53.184;8.578;2023-01-09T19:42:33;7.20;99.90
23556;DHT22;11956;53.184;8.578;2023-01-09T19:45:34;7.30;99.90
23556;DHT22;11956;53.184;8.578;2023-01-09T19:48:37;7.30;99.90
23556;DHT22;11956;53.184;8.578;2023-01-09T19:51:38;7.20;99.90
23556;DHT22;11956;53.184;8.578;2023-01-09T19:54:39;7.20;99.90
23556;DHT22;11956;53.184;8.578;2023-01-09T19:57:44;7.20;99.90
23556;DHT22;11956;53.184;8.578;2023-01-09T20:00:46;7.20;99.90
23556;DHT22;11956;53.184;8.578;2023-01-09T20:03:47;7.20;99.90
23556;DHT22;11956;53.184;8.578;2023-01-09T20:06:48;7.30;99.90
23556;DHT22;11956;53.184;8.578;2023-01-09T20:09:49;7.30;99.90
23556;DHT22;11956;53.184;8.578;2023-01-09T20:12:50;7.30;99.90
23556;DHT22;11956;53.184;8.578;2023-01-09T20:15:51;7.30;99.90
23556;DHT22;11956;53.184;8.578;2023-01-09T20:18:55;7.40;99.90
23556;DHT22;11956;53.184;8.578;2023-01-09T20:21:58;7.30;99.90
23556;DHT22;11956;53.184;8.578;2023-01-09T20:24:59;7.30;99.90
23556;DHT22;11956;53.184;8.578;2023-01-09T20:28:00;7.30;99.90
23556;DHT22;11956;53.184;8.578;2023-01-09T20:31:01;7.30;99.90
23556;DHT22;11956;53.184;8.578;2023-01-09T20:34:05;7.30;99.90
23556;DHT22;11956;53.184;8.578;2023-01-09T20:37:05;7.40;99.90
23556;DHT22;11956;53.184;8.578;2023-01-09T20:40:07;7.30;99.90
23556;DHT22;11956;53.184;8.578;2023-01-09T20:43:10;7.30;99.90
23556;DHT22;11956;53.184;8.578;2023-01-09T20:46:11;7.40;99.90
23556;DHT22;11956;53.184;8.578;2023-01-09T20:49:14;7.40;99.90
23556;DHT22;11956;53.184;8.578;2023-01-09T20:52:17;7.40;99.90
23556;DHT22;11956;53.184;8.578;2023-01-09T20:55:18;7.40;99.90
23556;DHT22;11956;53.184;8.578;2023-01-09T20:58:19;7.50;99.90
23556;DHT22;11956;53.184;8.578;2023-01-09T21:01:20;7.40;99.90
23556;DHT22;11956;53.184;8.578;2023-01-09T21:04:22;7.50;99.90
23556;DHT22;11956;53.184;8.578;2023-01-09T21:07:24;7.50;99.90
23556;DHT22;11956;53.184;8.578;2023-01-09T21:10:26;7.40;99.90
23556;DHT22;11956;53.184;8.578;2023-01-09T21:13:27;7.40;99.90
23556;DHT22;11956;53.184;8.578;2023-01-09T21:16:29;7.30;99.90
23556;DHT22;11956;53.184;8.578;2023-01-09T21:19:30;7.20;99.90
23556;DHT22;11956;53.184;8.578;2023-01-09T21:22:31;7.10;99.90
23556;DHT22;11956;53.184;8.578;2023-01-09T21:25:33;7.00;99.90
23556;DHT22;11956;53.184;8.578;2023-01-09T21:28:34;7.00;99.90
23556;DHT22;11956;53.184;8.578;2023-01-09T21:31:45;7.00;99.90
23556;DHT22;11956;53.184;8.578;2023-01-09T21:34:46;7.00;99.90
23556;DHT22;11956;53.184;8.578;2023-01-09T21:37:47;6.90;99.90
23556;DHT22;11956;53.184;8.578;2023-01-09T21:40:52;6.90;99.90
23556;DHT22;11956;53.184;8.578;2023-01-09T21:43:53;6.70;99.90
23556;DHT22;11956;53.184;8.578;2023-01-09T21:47:13;6.60;99.90